createdAt,value
2023-08-05T00:05:07.434Z,28.84
2023-08-05T00:09:48.021Z,28.41
2023-08-05T00:13:55.933Z,27.93
2023-08-05T00:18:23.405Z,27.68
2023-08-05T00:22:41.353Z,27.40
2023-08-05T00:32:23.550Z,27.16
2023-08-05T00:36:49.898Z,27.01
2023-08-05T00:41:52.689Z,27.04
2023-08-05T00:51:15.736Z,26.32
2023-08-05T01:10:03.810Z,24.79
2023-08-05T01:19:36.836Z,24.64
2023-08-05T01:31:08.244Z,24.09
2023-08-05T01:34:53.033Z,24.07
2023-08-05T01:39:56.233Z,23.69
2023-08-05T01:44:46.318Z,23.71
2023-08-05T01:49:14.014Z,23.67
2023-08-05T01:53:40.542Z,23.64
2023-08-05T01:58:24.211Z,23.44
2023-08-05T02:03:00.827Z,23.23
2023-08-05T02:13:06.403Z,23.05
2023-08-05T02:34:21.395Z,22.60
2023-08-05T02:39:18.161Z,22.54
2023-08-05T03:57:04.329Z,21.92
2023-08-05T04:01:45.067Z,22.35
2023-08-05T04:07:04.648Z,22.89
2023-08-05T04:11:40.396Z,23.24
2023-08-05T04:16:31.428Z,23.59
2023-08-05T04:20:57.873Z,23.59
2023-08-05T04:25:50.143Z,23.52
2023-08-05T04:35:31.170Z,24.13
2023-08-05T04:40:13.689Z,23.95
2023-08-05T04:44:25.908Z,23.87
2023-08-05T04:49:04.690Z,24.33
2023-08-05T04:53:41.502Z,24.24
2023-08-05T04:57:51.440Z,24.34
2023-08-05T05:02:34.954Z,24.71
2023-08-05T05:06:33.644Z,24.88
2023-08-05T05:16:08.293Z,25.10
2023-08-05T05:20:28.519Z,24.99
2023-08-05T05:29:58.929Z,26.15
2023-08-05T05:34:09.955Z,26.51
2023-08-05T05:39:22.074Z,26.68
2023-08-05T05:44:21.292Z,27.07
2023-08-05T05:48:48.714Z,27.30
2023-08-05T05:53:15.924Z,27.33
2023-08-05T05:57:57.509Z,27.18
2023-08-05T06:07:03.416Z,28.03
2023-08-05T06:21:55.860Z,28.75
2023-08-05T06:31:55.825Z,28.90
2023-08-05T06:48:25.585Z,29.99
2023-08-05T06:53:59.570Z,30.54
2023-08-05T07:26:26.264Z,31.68
2023-08-05T07:26:35.792Z,31.37
2023-08-05T07:31:04.702Z,32.00
2023-08-05T07:52:04.726Z,31.63
2023-08-05T07:56:25.775Z,31.86
2023-08-05T08:00:53.369Z,32.12
2023-08-05T08:05:36.620Z,32.45
2023-08-05T08:10:55.602Z,32.59
2023-08-05T08:15:15.944Z,32.94
2023-08-05T08:20:35.285Z,32.99
2023-08-05T08:24:57.992Z,32.79
2023-08-05T08:30:34.077Z,32.84
2023-08-05T08:35:18.131Z,33.21
2023-08-05T08:40:29.740Z,33.56
2023-08-05T08:45:39.235Z,33.33
2023-08-05T08:50:40.726Z,33.56
2023-08-05T08:55:46.688Z,33.51
2023-08-05T09:00:34.537Z,33.57
2023-08-05T09:10:30.411Z,33.41
2023-08-05T09:16:11.346Z,33.50
2023-08-05T09:26:21.923Z,33.83
2023-08-05T09:46:34.014Z,34.09
2023-08-05T10:21:50.570Z,34.92
2023-08-05T10:44:33.039Z,35.20
2023-08-05T11:01:52.084Z,35.32
2023-08-05T11:22:32.787Z,36.28
2023-08-05T11:44:44.812Z,36.42
2023-08-05T11:55:07.180Z,36.34
2023-08-05T12:01:25.839Z,36.32
2023-08-05T12:35:42.076Z,36.54
2023-08-05T12:45:34.762Z,36.59
2023-08-05T13:12:56.166Z,36.17
2023-08-05T13:18:32.867Z,36.38
2023-08-05T13:28:46.352Z,36.14
2023-08-05T13:33:31.862Z,36.41
2023-08-05T13:38:11.369Z,36.43
2023-08-05T13:47:52.488Z,36.54
2023-08-05T14:02:04.989Z,36.44
2023-08-05T16:15:17.033Z,34.73
2023-08-05T16:19:24.323Z,34.38
2023-08-05T16:23:30.306Z,34.12
2023-08-05T16:27:43.792Z,33.86
2023-08-05T16:32:57.998Z,33.95
2023-08-05T16:37:06.609Z,33.97
2023-08-05T16:41:31.619Z,33.62
2023-08-05T16:45:36.123Z,33.63
2023-08-05T16:50:14.257Z,33.29
2023-08-05T16:54:17.911Z,33.11
2023-08-05T16:58:23.628Z,32.98
2023-08-05T17:02:40.264Z,33.04
2023-08-05T17:07:23.661Z,32.74
2023-08-05T17:11:57.282Z,32.55
2023-08-05T17:16:32.782Z,32.27
2023-08-05T17:21:02.622Z,32.18
2023-08-05T17:25:17.574Z,32.00
2023-08-05T17:30:03.868Z,31.90
2023-08-05T17:34:16.020Z,31.79
2023-08-05T17:38:35.783Z,31.50
2023-08-05T17:42:40.947Z,31.16
2023-08-05T17:46:43.183Z,31.33
2023-08-05T17:50:47.458Z,31.22
2023-08-05T17:54:50.668Z,31.27
2023-08-05T17:59:06.398Z,30.90
2023-08-05T18:03:21.408Z,30.73
2023-08-05T18:07:36.179Z,30.98
2023-08-05T18:11:38.610Z,30.62
2023-08-05T18:15:43.768Z,30.65
2023-08-05T18:19:52.483Z,30.40
2023-08-05T18:24:21.598Z,30.38
2023-08-05T18:28:56.382Z,30.03
2023-08-05T18:33:27.760Z,29.80
2023-08-05T18:37:31.749Z,29.79
2023-08-05T18:41:49.609Z,29.65
2023-08-05T18:46:22.448Z,29.53
2023-08-05T18:50:30.251Z,29.46
2023-08-05T18:55:00.642Z,29.39
2023-08-05T18:59:19.268Z,29.26
2023-08-05T19:03:49.121Z,29.21
2023-08-05T19:08:01.375Z,29.06
2023-08-05T19:18:23.275Z,28.52
2023-08-05T19:27:52.325Z,28.45
2023-08-05T19:32:19.889Z,28.45
2023-08-05T19:37:15.764Z,28.34
2023-08-05T19:41:35.843Z,28.35
2023-08-05T19:45:52.359Z,28.29
2023-08-05T19:50:11.450Z,28.23
2023-08-05T19:54:50.736Z,27.95
2023-08-05T19:59:05.371Z,27.97
2023-08-05T20:03:18.747Z,27.85
2023-08-05T20:07:50.606Z,27.64
2023-08-05T20:12:14.117Z,27.53
2023-08-05T20:17:13.154Z,27.53
2023-08-05T20:21:32.170Z,27.44
2023-08-05T20:26:32.572Z,27.40
2023-08-05T20:30:56.364Z,27.42
2023-08-05T20:35:04.924Z,27.33
2023-08-05T20:39:43.997Z,26.97
2023-08-05T20:44:03.132Z,27.09
2023-08-05T20:48:58.383Z,27.08
2023-08-05T20:53:01.455Z,27.09
2023-08-05T20:57:23.621Z,27.03
2023-08-05T21:01:23.943Z,27.07
2023-08-05T21:05:23.957Z,26.73
2023-08-05T21:09:26.190Z,26.99
2023-08-05T21:13:28.215Z,27.02
2023-08-05T21:17:28.264Z,27.09
2023-08-05T21:21:28.301Z,27.03
2023-08-05T21:25:28.947Z,26.86
2023-08-05T21:29:31.644Z,26.84
2023-08-05T21:33:31.714Z,26.67
2023-08-05T21:37:45.375Z,26.51
2023-08-05T21:42:37.113Z,26.50
2023-08-05T21:47:17.701Z,26.41
2023-08-05T21:52:04.679Z,25.84
2023-08-05T21:56:21.703Z,26.15
2023-08-05T22:00:25.802Z,25.58
2023-08-05T22:05:14.818Z,25.78
2023-08-05T22:09:37.742Z,25.65
2023-08-05T22:14:15.331Z,25.45
2023-08-05T22:18:38.107Z,25.30
2023-08-05T22:22:51.624Z,25.16
2023-08-05T22:27:39.365Z,24.97
2023-08-05T22:31:55.244Z,24.85
2023-08-05T22:36:29.206Z,24.80
2023-08-05T22:42:03.047Z,24.80
2023-08-05T22:46:10.006Z,24.65
2023-08-05T22:50:31.162Z,24.56
2023-08-05T22:54:57.856Z,24.68
2023-08-05T22:59:38.137Z,24.45
2023-08-05T23:03:42.588Z,24.58
2023-08-05T23:07:57.432Z,24.46
2023-08-05T23:12:01.277Z,24.49
2023-08-05T23:17:07.247Z,24.43
2023-08-05T23:22:09.638Z,24.45
2023-08-05T23:27:40.571Z,24.36
2023-08-05T23:32:16.453Z,24.34
2023-08-05T23:36:42.857Z,24.22
2023-08-05T23:41:09.785Z,24.11
2023-08-05T23:46:08.003Z,24.33
2023-08-05T23:50:13.358Z,24.43
2023-08-05T23:54:17.295Z,24.15
2023-08-05T23:58:46.709Z,24.21
